createdAt,value
2018-10-19T00:00:12.509Z,57.47
2018-10-19T00:02:43.105Z,58.57
2018-10-19T00:05:13.526Z,55.30
2018-10-19T00:07:43.742Z,60.53
2018-10-19T00:10:14.055Z,54.67
2018-10-19T00:12:44.149Z,54.20
2018-10-19T00:15:14.488Z,58.37
2018-10-19T00:17:44.563Z,56.57
2018-10-19T00:20:15.284Z,57.00
2018-10-19T00:22:45.287Z,55.83
2018-10-19T00:25:15.359Z,55.37
2018-10-19T00:27:45.996Z,57.57
2018-10-19T00:30:16.628Z,54.97
2018-10-19T00:32:46.843Z,57.13
2018-10-19T00:35:17.372Z,56.77
2018-10-19T00:37:47.628Z,60.10
2018-10-19T00:40:18.697Z,54.57
2018-10-19T00:42:49.038Z,54.40
2018-10-19T00:45:19.391Z,56.47
2018-10-19T00:47:49.514Z,53.37
2018-10-19T00:50:19.628Z,57.73
2018-10-19T00:52:49.651Z,58.77
2018-10-19T00:55:23.051Z,56.43
2018-10-19T00:57:53.163Z,54.60
2018-10-19T01:00:23.713Z,56.93
2018-10-19T01:02:53.795Z,56.27
2018-10-19T01:05:24.168Z,52.87
2018-10-19T01:07:54.634Z,52.10
2018-10-19T01:10:26.371Z,53.23
2018-10-19T01:12:57.931Z,52.63
2018-10-19T01:15:29.288Z,55.67
2018-10-19T01:17:59.917Z,53.57
2018-10-19T01:20:30.027Z,53.53
2018-10-19T01:23:00.476Z,52.07
2018-10-19T01:25:30.734Z,54.57
2018-10-19T01:28:00.949Z,51.40
2018-10-19T01:30:31.849Z,52.83
2018-10-19T01:33:02.172Z,52.43
2018-10-19T01:35:33.387Z,51.20
2018-10-19T01:38:03.480Z,52.73
2018-10-19T01:40:33.754Z,53.90
2018-10-19T01:43:03.829Z,55.30
2018-10-19T01:45:34.172Z,53.17
2018-10-19T01:48:04.448Z,50.73
2018-10-19T01:50:35.940Z,54.67
2018-10-19T01:53:06.035Z,53.53
2018-10-19T01:55:36.392Z,53.57
2018-10-19T01:58:06.782Z,54.60
2018-10-19T02:00:37.199Z,50.47
2018-10-19T02:03:07.960Z,52.53
2018-10-19T02:05:38.356Z,50.23
2018-10-19T02:08:10.301Z,56.33
2018-10-19T02:10:40.619Z,52.13
2018-10-19T02:13:11.328Z,56.63
2018-10-19T02:15:41.392Z,55.10
2018-10-19T02:18:11.667Z,52.23
2018-10-19T02:20:41.915Z,52.53
2018-10-19T02:23:12.216Z,53.03
2018-10-19T02:25:42.197Z,49.67
2018-10-19T02:28:12.241Z,52.40
2018-10-19T02:30:42.471Z,50.70
2018-10-19T02:33:13.089Z,52.47
2018-10-19T02:35:43.152Z,53.50
2018-10-19T02:38:13.852Z,53.13
2018-10-19T02:40:43.971Z,49.60
2018-10-19T02:43:14.361Z,52.20
2018-10-19T02:45:44.672Z,51.13
2018-10-19T02:48:15.236Z,52.17
2018-10-19T02:50:45.425Z,50.70
2018-10-19T02:53:15.979Z,51.00
2018-10-19T02:55:46.099Z,51.37
2018-10-19T02:58:16.794Z,50.17
2018-10-19T03:00:47.427Z,49.20
2018-10-19T03:03:17.964Z,50.70
2018-10-19T03:05:48.314Z,51.63
2018-10-19T03:08:18.740Z,51.43
2018-10-19T03:10:51.277Z,52.10
2018-10-19T03:13:22.197Z,49.53
2018-10-19T03:15:52.257Z,48.13
2018-10-19T03:18:22.574Z,49.13
2018-10-19T03:20:52.751Z,49.47
2018-10-19T03:23:22.908Z,51.47
2018-10-19T03:25:53.038Z,49.57
2018-10-19T03:28:24.683Z,49.57
2018-10-19T03:30:54.868Z,50.43
2018-10-19T03:33:25.064Z,48.67
2018-10-19T03:35:55.289Z,53.87
2018-10-19T03:38:25.502Z,47.87
2018-10-19T03:40:55.620Z,49.13
2018-10-19T03:43:25.932Z,47.20
2018-10-19T03:45:56.542Z,51.77
2018-10-19T03:48:26.756Z,49.83
2018-10-19T03:50:56.800Z,53.00
2018-10-19T03:53:27.179Z,49.00
2018-10-19T03:55:57.860Z,48.97
2018-10-19T03:58:34.872Z,50.47
2018-10-19T04:01:05.335Z,48.57
2018-10-19T04:03:35.802Z,47.30
2018-10-19T04:06:06.001Z,45.97
2018-10-19T04:08:36.172Z,48.37
2018-10-19T04:11:06.873Z,50.23
2018-10-19T04:13:37.405Z,49.83
2018-10-19T04:16:08.135Z,48.20
2018-10-19T04:18:39.687Z,48.17
2018-10-19T04:21:10.749Z,49.87
2018-10-19T04:23:41.134Z,48.70
2018-10-19T04:26:11.467Z,50.97
2018-10-19T04:28:41.662Z,48.70
2018-10-19T04:31:12.809Z,49.30
2018-10-19T04:33:43.128Z,47.57
2018-10-19T04:36:13.556Z,48.87
2018-10-19T04:38:43.924Z,49.17
2018-10-19T04:41:14.672Z,54.13
2018-10-19T04:43:45.559Z,49.93
2018-10-19T04:46:16.433Z,49.90
2018-10-19T04:48:47.255Z,51.20
2018-10-19T04:51:17.809Z,54.17
2018-10-19T04:53:48.663Z,53.43
2018-10-19T04:56:19.090Z,53.00
2018-10-19T04:58:49.267Z,56.97
2018-10-19T05:01:20.249Z,58.60
2018-10-19T05:03:50.577Z,56.13
2018-10-19T05:06:20.717Z,60.77
2018-10-19T05:08:51.077Z,52.50
2018-10-19T05:11:21.240Z,52.30
2018-10-19T05:13:51.761Z,56.20
2018-10-19T05:16:21.900Z,55.10
2018-10-19T05:18:52.641Z,53.17
2018-10-19T05:21:22.773Z,55.67
2018-10-19T05:23:52.981Z,54.90
2018-10-19T05:26:23.244Z,52.37
2018-10-19T05:28:53.443Z,53.93
2018-10-19T05:31:24.343Z,52.37
2018-10-19T05:33:56.610Z,55.23
2018-10-19T05:36:27.382Z,56.57
2018-10-19T05:38:57.874Z,56.57
2018-10-19T05:41:28.166Z,58.60
2018-10-19T05:43:59.138Z,55.07
2018-10-19T05:46:29.940Z,59.10
2018-10-19T05:49:00.070Z,58.20
2018-10-19T05:51:30.624Z,54.73
2018-10-19T05:54:01.179Z,54.87
2018-10-19T05:56:31.377Z,57.80
2018-10-19T05:59:01.698Z,56.03
2018-10-19T06:01:32.127Z,59.40
2018-10-19T06:04:02.245Z,61.83
2018-10-19T06:06:32.468Z,61.77
2018-10-19T06:09:03.415Z,61.03
2018-10-19T06:11:33.735Z,58.17
2018-10-19T06:14:03.810Z,54.50
2018-10-19T06:16:34.123Z,55.53
2018-10-19T06:19:11.700Z,55.70
2018-10-19T06:21:42.147Z,54.97
2018-10-19T06:24:12.389Z,54.13
2018-10-19T06:26:42.649Z,53.90
2018-10-19T06:29:13.140Z,59.40
2018-10-19T06:31:43.735Z,54.97
2018-10-19T06:34:14.288Z,52.77
2018-10-19T06:36:44.783Z,53.60
2018-10-19T06:39:15.137Z,62.87
2018-10-19T06:41:45.215Z,56.90
2018-10-19T06:44:15.745Z,59.20
2018-10-19T06:46:45.890Z,59.43
2018-10-19T06:49:16.085Z,60.13
2018-10-19T06:51:46.257Z,59.40
2018-10-19T06:54:16.568Z,57.53
2018-10-19T06:56:47.160Z,58.97
2018-10-19T06:59:17.432Z,57.37
2018-10-19T07:01:47.642Z,60.90
2018-10-19T07:04:17.794Z,56.30
2018-10-19T07:06:48.317Z,57.57
2018-10-19T07:09:18.489Z,63.97
2018-10-19T07:11:49.568Z,57.43
2018-10-19T07:14:20.141Z,58.47
2018-10-19T07:16:50.500Z,63.37
2018-10-19T07:19:20.632Z,59.83
2018-10-19T07:21:51.169Z,62.47
2018-10-19T07:24:21.465Z,63.80
2018-10-19T07:26:51.701Z,60.50
2018-10-19T07:29:21.986Z,61.97
2018-10-19T07:31:52.591Z,56.03
2018-10-19T07:34:22.991Z,64.00
2018-10-19T07:36:53.470Z,61.87
2018-10-19T07:39:24.048Z,60.83
2018-10-19T07:41:55.431Z,60.30
2018-10-19T07:44:25.604Z,56.50
2018-10-19T07:46:55.930Z,62.90
2018-10-19T07:49:26.196Z,70.10
2018-10-19T07:51:56.396Z,63.57
2018-10-19T07:54:27.476Z,63.80
2018-10-19T07:56:57.712Z,65.03
2018-10-19T07:59:28.027Z,59.43
2018-10-19T08:01:58.263Z,60.40
2018-10-19T08:04:28.347Z,59.80
2018-10-19T08:06:58.774Z,61.53
2018-10-19T08:09:29.124Z,62.00
2018-10-19T08:11:59.361Z,63.40
2018-10-19T08:14:29.933Z,63.20
2018-10-19T08:17:00.209Z,62.33
2018-10-19T08:19:30.466Z,60.00
2018-10-19T08:22:01.071Z,60.00
2018-10-19T08:24:31.276Z,59.63
2018-10-19T08:27:01.310Z,66.30
2018-10-19T08:29:31.873Z,59.83
2018-10-19T08:32:02.629Z,59.90
2018-10-19T08:34:33.630Z,63.43
2018-10-19T08:37:03.796Z,60.50
2018-10-19T08:39:34.031Z,61.20
2018-10-19T08:42:04.258Z,60.53
2018-10-19T08:44:34.669Z,61.77
2018-10-19T08:47:04.883Z,61.10
2018-10-19T08:49:35.769Z,61.90
2018-10-19T08:52:06.648Z,57.30
2018-10-19T08:54:43.523Z,63.40
2018-10-19T08:57:13.788Z,58.43
2018-10-19T08:59:43.994Z,61.53
2018-10-19T09:02:20.633Z,57.83
2018-10-19T09:04:51.013Z,62.07
2018-10-19T09:07:22.489Z,58.13
2018-10-19T09:09:52.513Z,57.90
2018-10-19T09:12:22.936Z,56.33
2018-10-19T09:14:56.721Z,58.67
2018-10-19T09:17:27.814Z,56.20
2018-10-19T09:19:59.333Z,55.07
2018-10-19T09:22:30.872Z,53.93
2018-10-19T09:25:00.937Z,56.13
2018-10-19T09:27:31.203Z,58.57
2018-10-19T09:30:01.405Z,56.37
2018-10-19T09:32:31.635Z,58.97
2018-10-19T09:35:02.009Z,59.10
2018-10-19T09:37:32.241Z,59.93
2018-10-19T09:40:02.369Z,56.33
2018-10-19T09:42:32.627Z,59.37
2018-10-19T09:45:03.485Z,55.23
2018-10-19T09:47:34.113Z,57.13
2018-10-19T09:50:05.943Z,56.87
2018-10-19T09:52:36.297Z,63.27
2018-10-19T09:55:07.595Z,59.17
2018-10-19T09:57:37.780Z,59.03
2018-10-19T10:00:17.874Z,55.87
2018-10-19T10:02:48.809Z,55.27
2018-10-19T10:05:25.823Z,55.50
2018-10-19T10:07:56.248Z,55.47
2018-10-19T10:10:27.226Z,55.17
2018-10-19T10:12:57.526Z,57.47
2018-10-19T10:15:27.883Z,56.67
2018-10-19T10:17:57.887Z,56.87
2018-10-19T10:20:29.425Z,60.07
2018-10-19T10:22:59.473Z,57.90
2018-10-19T10:25:29.725Z,60.53
2018-10-19T10:27:59.949Z,56.57
2018-10-19T10:30:30.079Z,56.90
2018-10-19T10:33:00.229Z,60.00
2018-10-19T10:35:30.865Z,61.83
2018-10-19T10:38:01.127Z,59.00
2018-10-19T10:40:32.352Z,58.53
2018-10-19T10:43:02.430Z,58.47
2018-10-19T10:45:32.730Z,59.90
2018-10-19T10:48:03.775Z,57.63
2018-10-19T10:50:34.719Z,58.93
2018-10-19T10:53:05.462Z,58.43
2018-10-19T10:55:35.838Z,59.53
2018-10-19T10:58:06.402Z,58.90
2018-10-19T11:00:37.819Z,60.83
2018-10-19T11:03:08.109Z,60.53
2018-10-19T11:05:38.361Z,60.80
2018-10-19T11:08:09.242Z,63.53
2018-10-19T11:10:39.761Z,54.87
2018-10-19T11:13:10.192Z,63.87
2018-10-19T11:15:40.797Z,60.20
2018-10-19T11:18:11.502Z,58.97
2018-10-19T11:20:42.174Z,57.57
2018-10-19T11:23:12.645Z,59.20
2018-10-19T11:25:43.232Z,62.67
2018-10-19T11:28:13.757Z,59.90
2018-10-19T11:30:43.645Z,61.20
2018-10-19T11:33:14.327Z,59.40
2018-10-19T11:35:44.209Z,58.60
2018-10-19T11:38:14.161Z,60.90
2018-10-19T11:40:44.081Z,62.40
2018-10-19T11:43:14.611Z,63.33
2018-10-19T11:45:44.561Z,62.97
2018-10-19T11:48:14.530Z,59.30
2018-10-19T11:50:44.411Z,60.87
2018-10-19T11:53:14.295Z,59.00
2018-10-19T11:55:46.966Z,61.33
2018-10-19T11:58:17.501Z,63.40
2018-10-19T12:00:47.477Z,60.03
2018-10-19T12:03:17.451Z,58.77
2018-10-19T12:05:48.733Z,59.17
2018-10-19T12:08:19.594Z,64.33
2018-10-19T12:10:50.359Z,65.27
2018-10-19T12:13:20.809Z,62.77
2018-10-19T12:15:51.168Z,64.07
2018-10-19T12:18:23.146Z,60.97
2018-10-19T12:20:53.543Z,65.47
2018-10-19T12:23:23.745Z,61.47
2018-10-19T12:25:54.293Z,65.77
2018-10-19T12:28:25.336Z,59.77
2018-10-19T12:30:55.942Z,61.83
2018-10-19T12:33:26.916Z,65.40
2018-10-19T12:35:57.116Z,65.47
2018-10-19T12:38:27.498Z,64.73
2018-10-19T12:40:57.732Z,62.97
2018-10-19T12:43:28.253Z,64.73
2018-10-19T12:46:42.351Z,66.30
2018-10-19T12:49:14.245Z,66.93
2018-10-19T12:51:44.516Z,71.57
2018-10-19T12:54:14.761Z,69.07
2018-10-19T12:56:45.563Z,68.97
2018-10-19T12:59:15.553Z,67.70
2018-10-19T13:01:45.861Z,67.27
2018-10-19T13:04:16.270Z,67.10
2018-10-19T13:06:46.754Z,65.47
2018-10-19T13:09:17.694Z,69.70
2018-10-19T13:11:48.024Z,66.20
2018-10-19T13:14:18.214Z,69.57
2018-10-19T13:16:48.332Z,68.20
2018-10-19T13:19:18.645Z,68.37
2018-10-19T13:21:49.073Z,70.20
2018-10-19T13:24:22.248Z,68.13
2018-10-19T13:26:52.555Z,69.07
2018-10-19T13:29:22.862Z,66.37
2018-10-19T13:31:53.378Z,71.93
2018-10-19T13:34:23.711Z,68.30
2018-10-19T13:36:53.888Z,65.57
2018-10-19T13:39:24.169Z,65.57
2018-10-19T13:41:54.342Z,67.33
2018-10-19T13:44:25.234Z,70.80
2018-10-19T13:46:55.470Z,64.80
2018-10-19T13:49:25.510Z,66.43
2018-10-19T13:51:57.096Z,64.37
2018-10-19T13:54:27.592Z,63.77
2018-10-19T13:56:58.552Z,66.17
2018-10-19T13:59:29.250Z,61.97
2018-10-19T14:02:02.719Z,61.10
2018-10-19T14:04:33.855Z,62.70
2018-10-19T14:07:04.287Z,62.97
2018-10-19T14:09:34.363Z,66.93
2018-10-19T14:12:04.933Z,64.87
2018-10-19T14:14:35.143Z,64.93
2018-10-19T14:17:05.836Z,62.67
2018-10-19T14:19:36.233Z,67.97
2018-10-19T14:22:06.718Z,61.87
2018-10-19T14:24:37.049Z,62.33
2018-10-19T14:27:07.820Z,62.80
2018-10-19T14:29:38.614Z,65.23
2018-10-19T14:32:10.846Z,63.30
2018-10-19T14:34:41.133Z,64.23
2018-10-19T14:37:11.647Z,62.00
2018-10-19T14:39:42.105Z,62.13
2018-10-19T14:42:12.577Z,66.17
2018-10-19T14:44:42.823Z,63.70
2018-10-19T14:47:13.040Z,64.57
2018-10-19T14:49:43.717Z,66.13
2018-10-19T14:52:14.390Z,67.83
2018-10-19T14:54:44.704Z,68.43
2018-10-19T14:57:15.965Z,69.33
2018-10-19T14:59:46.255Z,66.03
2018-10-19T15:02:17.896Z,66.87
2018-10-19T15:04:49.697Z,66.73
2018-10-19T15:07:21.754Z,65.77
2018-10-19T15:09:52.265Z,67.43
2018-10-19T15:12:22.265Z,66.80
2018-10-19T15:14:52.551Z,68.43
2018-10-19T15:17:22.693Z,68.83
2018-10-19T15:19:52.968Z,71.17
2018-10-19T15:22:23.570Z,69.80
2018-10-19T15:24:53.924Z,72.10
2018-10-19T15:27:24.514Z,71.20
2018-10-19T15:29:55.086Z,71.23
2018-10-19T15:32:26.052Z,72.73
2018-10-19T15:34:56.447Z,74.13
2018-10-19T15:37:27.045Z,74.27
2018-10-19T15:39:57.208Z,79.97
2018-10-19T15:42:27.310Z,73.10
2018-10-19T15:44:58.020Z,76.20
2018-10-19T15:47:30.955Z,71.60
2018-10-19T15:50:01.076Z,77.00
2018-10-19T15:52:31.338Z,71.33
2018-10-19T15:55:01.870Z,71.07
2018-10-19T15:57:33.656Z,74.00
2018-10-19T16:00:04.284Z,71.87
2018-10-19T16:02:35.341Z,71.90
2018-10-19T16:05:05.934Z,75.07
2018-10-19T16:07:37.080Z,69.17
2018-10-19T16:10:08.439Z,70.97
2018-10-19T16:12:38.707Z,74.37
2018-10-19T16:15:10.942Z,71.77
2018-10-19T16:17:41.336Z,76.70
2018-10-19T16:20:11.932Z,70.47
2018-10-19T16:22:42.077Z,73.30
2018-10-19T16:25:12.556Z,75.03
2018-10-19T16:27:42.793Z,71.60
2018-10-19T16:30:13.198Z,70.90
2018-10-19T16:32:43.886Z,75.33
2018-10-19T16:35:13.976Z,71.70
2018-10-19T16:37:44.322Z,78.30
2018-10-19T16:40:15.505Z,70.83
2018-10-19T16:42:45.572Z,73.73
2018-10-19T16:45:16.110Z,71.47
2018-10-19T16:47:46.712Z,69.60
2018-10-19T16:50:16.822Z,71.87
2018-10-19T16:52:47.206Z,70.53
2018-10-19T16:55:17.305Z,67.03
2018-10-19T16:57:48.855Z,70.23
2018-10-19T17:00:19.134Z,73.73
2018-10-19T17:02:49.476Z,71.30
2018-10-19T17:05:20.264Z,69.50
2018-10-19T17:07:52.093Z,69.37
2018-10-19T17:10:22.218Z,65.17
2018-10-19T17:12:52.890Z,71.07
2018-10-19T17:15:23.064Z,64.67
2018-10-19T17:17:53.364Z,69.57
2018-10-19T17:20:23.887Z,67.43
2018-10-19T17:22:54.656Z,65.03
2018-10-19T17:25:25.053Z,68.63
2018-10-19T17:27:55.149Z,66.67
2018-10-19T17:30:32.406Z,67.93
2018-10-19T17:33:03.245Z,67.57
2018-10-19T17:35:34.609Z,66.70
2018-10-19T17:38:05.563Z,68.73
2018-10-19T17:40:35.847Z,66.23
2018-10-19T17:43:06.679Z,67.63
2018-10-19T17:45:36.919Z,69.63
2018-10-19T17:48:07.303Z,66.80
2018-10-19T17:50:37.596Z,68.07
2018-10-19T17:53:07.951Z,66.10
2018-10-19T17:55:38.632Z,65.53
2018-10-19T17:58:09.375Z,65.40
2018-10-19T18:00:39.584Z,71.20
2018-10-19T18:03:10.304Z,64.83
2018-10-19T18:05:43.334Z,64.73
2018-10-19T18:08:15.145Z,67.43
2018-10-19T18:10:46.858Z,67.17
2018-10-19T18:13:16.968Z,67.57
2018-10-19T18:15:48.758Z,65.43
2018-10-19T18:18:18.911Z,71.27
2018-10-19T18:20:49.405Z,70.70
2018-10-19T18:23:23.361Z,74.03
2018-10-19T18:25:56.105Z,73.17
2018-10-19T18:28:26.403Z,71.87
2018-10-19T18:30:57.491Z,64.03
2018-10-19T18:33:28.629Z,68.77
2018-10-19T18:35:59.262Z,74.80
2018-10-19T18:38:29.798Z,71.90
2018-10-19T18:41:00.035Z,74.37
2018-10-19T18:43:30.050Z,71.10
2018-10-19T18:46:00.253Z,81.87
2018-10-19T18:48:31.497Z,77.33
2018-10-19T18:51:01.620Z,72.17
2018-10-19T18:53:34.731Z,73.43
2018-10-19T18:56:05.244Z,66.57
2018-10-19T18:58:35.421Z,67.37
2018-10-19T19:01:06.159Z,66.63
2018-10-19T19:03:36.763Z,63.50
2018-10-19T19:06:07.307Z,61.87
2018-10-19T19:08:37.891Z,63.50
2018-10-19T19:11:08.019Z,61.97
2018-10-19T19:13:43.457Z,63.80
2018-10-19T19:16:19.522Z,63.77
2018-10-19T19:18:49.857Z,66.37
2018-10-19T19:21:20.113Z,69.83
2018-10-19T19:24:01.829Z,68.40
2018-10-19T19:26:32.380Z,66.97
2018-10-19T19:29:03.506Z,67.97
2018-10-19T19:31:34.777Z,67.97
2018-10-19T19:34:10.708Z,68.67
2018-10-19T19:36:41.582Z,66.40
2018-10-19T19:39:11.794Z,67.73
2018-10-19T19:41:47.128Z,69.43
2018-10-19T19:44:17.177Z,67.47
2018-10-19T19:46:47.952Z,67.87
2018-10-19T19:49:23.039Z,64.37
2018-10-19T19:51:53.191Z,70.60
2018-10-19T19:54:23.576Z,67.97
2018-10-19T19:56:54.632Z,67.80
2018-10-19T19:59:24.752Z,67.57
2018-10-19T20:01:54.907Z,65.67
2018-10-19T20:04:24.792Z,67.67
2018-10-19T20:06:55.014Z,63.93
2018-10-19T20:09:25.949Z,69.87
2018-10-19T20:11:56.167Z,71.17
2018-10-19T20:14:26.234Z,68.60
2018-10-19T20:16:56.561Z,69.73
2018-10-19T20:19:27.144Z,67.07
2018-10-19T20:21:57.795Z,68.30
2018-10-19T20:24:28.441Z,68.33
2018-10-19T20:26:58.797Z,66.60
2018-10-19T20:29:29.484Z,61.37
2018-10-19T20:31:59.903Z,66.33
2018-10-19T20:34:30.315Z,68.77
2018-10-19T20:37:01.576Z,69.30
2018-10-19T20:39:32.310Z,70.03
2018-10-19T20:42:03.748Z,64.37
2018-10-19T20:44:33.895Z,69.03
2018-10-19T20:47:04.522Z,66.43
2018-10-19T20:49:35.781Z,66.30
2018-10-19T20:52:06.266Z,65.97
2018-10-19T20:54:37.319Z,68.70
2018-10-19T20:57:07.614Z,62.93
2018-10-19T20:59:37.741Z,63.73
2018-10-19T21:02:08.278Z,63.80
2018-10-19T21:04:38.487Z,64.13
2018-10-19T21:07:09.959Z,63.20
2018-10-19T21:09:40.310Z,67.47
2018-10-19T21:12:10.990Z,63.57
2018-10-19T21:14:41.595Z,62.23
2018-10-19T21:17:13.023Z,65.20
2018-10-19T21:19:43.543Z,61.67
2018-10-19T21:22:14.296Z,64.60
2018-10-19T21:24:44.677Z,63.50
2018-10-19T21:27:15.932Z,72.23
2018-10-19T21:29:46.296Z,68.30
2018-10-19T21:32:16.824Z,69.53
2018-10-19T21:34:47.693Z,61.70
2018-10-19T21:37:18.276Z,61.43
2018-10-19T21:39:49.387Z,61.97
2018-10-19T21:42:19.734Z,61.83
2018-10-19T21:44:50.079Z,61.70
2018-10-19T21:47:20.436Z,63.97
2018-10-19T21:49:51.400Z,67.87
2018-10-19T21:52:22.498Z,66.33
2018-10-19T21:54:52.827Z,65.57
2018-10-19T21:57:23.257Z,65.17
2018-10-19T21:59:54.084Z,64.67
2018-10-19T22:02:26.670Z,63.53
2018-10-19T22:04:56.920Z,61.67
2018-10-19T22:07:29.352Z,62.73
2018-10-19T22:09:59.574Z,63.77
2018-10-19T22:12:33.490Z,65.70
2018-10-19T22:15:05.005Z,67.97
2018-10-19T22:17:35.646Z,74.23
2018-10-19T22:20:07.242Z,67.73
2018-10-19T22:22:37.775Z,70.70
2018-10-19T22:25:08.421Z,65.97
2018-10-19T22:27:39.088Z,63.50
2018-10-19T22:30:09.912Z,59.67
2018-10-19T22:32:42.548Z,65.50
2018-10-19T22:35:14.861Z,58.70
2018-10-19T22:37:45.222Z,63.60
2018-10-19T22:40:16.088Z,66.23
2018-10-19T22:42:47.106Z,69.27
2018-10-19T22:45:17.872Z,67.60
2018-10-19T22:47:48.215Z,67.17
2018-10-19T22:50:19.559Z,64.73
2018-10-19T22:52:50.054Z,65.63
2018-10-19T22:55:20.356Z,63.60
2018-10-19T22:57:50.783Z,64.13
2018-10-19T23:00:21.549Z,63.63
2018-10-19T23:02:53.241Z,64.33
2018-10-19T23:05:23.935Z,59.53
2018-10-19T23:07:54.482Z,62.37
2018-10-19T23:10:25.414Z,60.53
2018-10-19T23:12:56.043Z,62.50
2018-10-19T23:15:27.148Z,65.33
2018-10-19T23:17:57.682Z,68.33
2018-10-19T23:20:28.135Z,66.87
2018-10-19T23:22:58.834Z,65.50
2018-10-19T23:25:29.179Z,62.00
2018-10-19T23:27:59.736Z,63.33
2018-10-19T23:30:30.209Z,64.13
2018-10-19T23:33:00.480Z,64.37
2018-10-19T23:35:30.954Z,63.30
2018-10-19T23:38:01.276Z,61.07
2018-10-19T23:40:32.202Z,64.57
2018-10-19T23:43:03.868Z,64.87
2018-10-19T23:45:34.358Z,64.83
2018-10-19T23:48:05.667Z,65.93
2018-10-19T23:50:35.934Z,66.33
2018-10-19T23:53:06.749Z,62.97
2018-10-19T23:55:37.111Z,65.07
2018-10-19T23:58:08.270Z,63.80
